Accueil
METAR-TAF:

METAR-TAF

Aéroports :

RAF Lakenheath

Lakenheath, Angleterre

latitude: 52-25N, longitude: 000-34E, altitude: 10 m

Observation

Le bulletin a été fait il y a 45 minutes, à 22:56 UTC
Vent 4 kt de est/nord-est
Température 12°C
Humidité 71%
Pression 1025 hPa
Visibilité 10 km ou plus
Ciel clair

METAR: EGUL 232256Z AUTO 07004KT 9999 CLR 12/07 A3028 RMK AO2 SLP257 T01230074

Heure: 00:41 (23:41 UTC)

Prévision

Le bulletin a été fait il y a 30 heures et 28 minutes, à 17:13 UTC
Prévision valable du 22 à 17 UTC au 23 à 18 UTC
Vent 9 kt de nord
Visibilité 10 km ou plus
Ciel clair
Evoluant progressivement
du 22 à 19 UTC au 22 à 20 UTC
Vent 6 kt de direction variable
Visibilité: 2420 m
Quelques nuages à une hauteur de 7000 ft
Nuages épars à une hauteur de 14000 ft

TAF: EGUL 221713Z 2217/2318 35009KT 9999 SKC QNH3038INS BECMG 2219/2220 VRB06KT 9999 FEW070 SCT140 QNH3025INS TX21/2312Z TN03/2304Z LAST NO AMDS AFT 2218 NEXT 2420

Observations et prévisions météorologiques de plus de 4000 aéroports (messages METAR et TAF).

Les stations disponibles sont représentées par des disques jaunes et rouges sur la carte.

Passer la souris dessus pour voir le nom de la station.

Cliquer dessus pour voir les observations et prévisions météorologiques.

Pour changer de carte: cliquez sur les boutons verts avec une croix noire pour zoomer, sur le bouton vert avec un tiret pour effectuer un zoom arrière, ou sur les flèches vertes pour les cartes adjacentes.


METAR-TAF: